createdAt,value
2017-12-11T00:00:49.282Z,963.79
2017-12-11T00:01:49.298Z,964.08
2017-12-11T00:02:49.336Z,963.97
2017-12-11T00:03:49.325Z,964.11
2017-12-11T00:04:49.335Z,964.20
2017-12-11T00:05:49.354Z,964.16
2017-12-11T00:06:49.373Z,964.29
2017-12-11T00:07:49.509Z,964.32
2017-12-11T00:08:49.395Z,964.32
2017-12-11T00:09:49.403Z,964.41
2017-12-11T00:10:49.417Z,964.35
2017-12-11T00:11:49.428Z,964.47
2017-12-11T00:12:49.590Z,964.36
2017-12-11T00:13:49.454Z,964.49
2017-12-11T00:14:49.470Z,964.48
2017-12-11T00:15:49.482Z,964.68
2017-12-11T00:16:49.498Z,964.61
2017-12-11T00:17:49.536Z,964.57
2017-12-11T00:18:49.527Z,964.67
2017-12-11T00:19:49.585Z,964.77
2017-12-11T00:20:49.548Z,964.69
2017-12-11T00:21:49.560Z,964.82
2017-12-11T00:22:49.600Z,964.65
2017-12-11T00:23:49.591Z,964.90
2017-12-11T00:24:49.605Z,964.86
2017-12-11T00:25:49.614Z,964.88
2017-12-11T00:26:49.631Z,964.91
2017-12-11T00:27:49.684Z,964.97
2017-12-11T00:28:49.652Z,964.93
2017-12-11T00:29:49.668Z,965.09
2017-12-11T00:30:49.681Z,965.09
2017-12-11T00:31:49.698Z,965.05
2017-12-11T00:32:49.897Z,965.12
2017-12-11T00:33:49.720Z,965.19
2017-12-11T00:34:49.735Z,965.22
2017-12-11T00:35:49.747Z,965.27
2017-12-11T00:36:49.765Z,965.28
2017-12-11T00:37:49.836Z,965.27
2017-12-11T00:38:49.785Z,965.21
2017-12-11T00:39:49.801Z,965.26
2017-12-11T00:40:49.814Z,965.31
2017-12-11T00:41:49.827Z,965.47
2017-12-11T00:42:49.885Z,965.39
2017-12-11T00:43:49.851Z,965.48
2017-12-11T00:44:49.864Z,965.45
2017-12-11T00:45:49.877Z,965.54
2017-12-11T00:46:49.898Z,965.42
2017-12-11T00:47:49.995Z,965.58
2017-12-11T00:48:49.918Z,965.54
2017-12-11T00:49:49.931Z,965.57
2017-12-11T00:50:49.950Z,965.58
2017-12-11T00:51:49.964Z,965.57
2017-12-11T00:52:50.131Z,965.57
2017-12-11T00:53:49.983Z,965.58
2017-12-11T00:54:49.996Z,965.54
2017-12-11T00:55:50.005Z,965.72
2017-12-11T00:56:50.022Z,965.81
2017-12-11T00:57:50.035Z,965.75
2017-12-11T00:58:50.047Z,965.87
2017-12-11T00:59:50.066Z,965.99
2017-12-11T01:00:50.072Z,965.88
2017-12-11T01:01:50.086Z,966.00
2017-12-11T01:02:50.107Z,966.02
2017-12-11T01:03:50.128Z,966.12
2017-12-11T01:04:50.129Z,966.20
2017-12-11T01:05:50.203Z,966.19
2017-12-11T01:06:50.159Z,966.21
2017-12-11T01:07:50.167Z,966.31
2017-12-11T01:08:50.182Z,966.29
2017-12-11T01:09:50.196Z,966.44
2017-12-11T01:10:50.206Z,966.32
2017-12-11T01:11:50.216Z,966.50
2017-12-11T01:12:50.257Z,966.60
2017-12-11T01:13:50.243Z,966.62
2017-12-11T01:14:50.255Z,966.58
2017-12-11T01:15:50.271Z,966.55
2017-12-11T01:16:50.284Z,966.74
2017-12-11T01:17:50.301Z,966.72
2017-12-11T01:18:50.307Z,966.80
2017-12-11T01:19:50.321Z,966.87
2017-12-11T01:20:50.331Z,966.91
2017-12-11T01:21:50.345Z,966.99
2017-12-11T01:22:50.404Z,966.89
2017-12-11T01:23:50.373Z,967.00
2017-12-11T01:24:50.395Z,967.03
2017-12-11T01:25:50.398Z,967.04
2017-12-11T01:26:50.415Z,967.16
2017-12-11T01:27:50.459Z,967.05
2017-12-11T01:28:50.437Z,967.10
2017-12-11T01:29:50.450Z,967.04
2017-12-11T01:30:50.464Z,967.15
2017-12-11T01:31:50.477Z,967.13
2017-12-11T01:32:50.500Z,967.16
2017-12-11T01:33:50.503Z,967.13
2017-12-11T01:34:50.514Z,967.09
2017-12-11T01:35:50.527Z,967.13
2017-12-11T01:36:50.538Z,967.24
2017-12-11T01:37:50.606Z,967.33
2017-12-11T01:38:50.565Z,967.19
2017-12-11T01:39:50.581Z,967.30
2017-12-11T01:40:50.591Z,967.32
2017-12-11T01:41:50.608Z,967.41
2017-12-11T01:42:50.649Z,967.37
2017-12-11T01:43:50.635Z,967.53
2017-12-11T01:44:50.697Z,967.43
2017-12-11T01:45:50.662Z,967.37
2017-12-11T01:46:50.669Z,967.62
2017-12-11T01:47:50.764Z,967.34
2017-12-11T01:48:50.746Z,967.50
2017-12-11T01:49:50.706Z,967.39
2017-12-11T01:50:50.724Z,967.50
2017-12-11T01:51:50.735Z,967.53
2017-12-11T01:52:50.824Z,967.55
2017-12-11T01:53:50.765Z,967.58
2017-12-11T01:54:50.774Z,967.72
2017-12-11T01:55:50.785Z,967.53
2017-12-11T01:56:50.798Z,967.66
2017-12-11T01:57:50.809Z,967.80
2017-12-11T01:58:50.822Z,967.67
2017-12-11T01:59:50.893Z,967.68
2017-12-11T02:00:50.854Z,967.67
2017-12-11T02:01:50.861Z,967.81
2017-12-11T02:02:50.916Z,967.71
2017-12-11T02:03:50.887Z,967.77
2017-12-11T02:04:50.901Z,967.92
2017-12-11T02:05:50.911Z,967.89
2017-12-11T02:06:50.925Z,967.92
2017-12-11T02:07:50.981Z,967.87
2017-12-11T02:08:51.083Z,967.88
2017-12-11T02:09:50.963Z,968.00
2017-12-11T02:10:50.978Z,967.99
2017-12-11T02:11:50.989Z,967.95
2017-12-11T02:12:51.001Z,968.10
2017-12-11T02:13:51.015Z,968.06
2017-12-11T02:14:51.026Z,968.12
2017-12-11T02:15:51.041Z,968.07
2017-12-11T02:16:51.054Z,968.00
2017-12-11T02:17:51.082Z,968.10
2017-12-11T02:18:51.082Z,968.14
2017-12-11T02:19:51.095Z,968.15
2017-12-11T02:20:51.106Z,968.16
2017-12-11T02:21:51.120Z,968.04
2017-12-11T02:22:51.151Z,968.27
2017-12-11T02:23:51.144Z,968.17
2017-12-11T02:24:51.153Z,968.31
2017-12-11T02:25:51.166Z,968.33
2017-12-11T02:26:51.182Z,968.29
2017-12-11T02:27:51.387Z,968.24
2017-12-11T02:28:51.209Z,968.23
2017-12-11T02:29:51.218Z,968.23
2017-12-11T02:30:51.232Z,968.08
2017-12-11T02:31:51.243Z,968.10
2017-12-11T02:32:51.294Z,968.12
2017-12-11T02:33:51.268Z,968.07
2017-12-11T02:34:51.284Z,968.12
2017-12-11T02:35:51.296Z,968.13
2017-12-11T02:36:51.306Z,968.11
2017-12-11T02:37:51.333Z,968.04
2017-12-11T02:38:51.335Z,968.17
2017-12-11T02:39:51.348Z,968.22
2017-12-11T02:40:51.360Z,968.33
2017-12-11T02:41:51.376Z,968.47
2017-12-11T02:42:51.424Z,968.31
2017-12-11T02:43:51.400Z,968.55
2017-12-11T02:44:51.409Z,968.54
2017-12-11T02:45:51.433Z,968.62
2017-12-11T02:46:51.453Z,968.64
2017-12-11T02:47:51.501Z,968.70
2017-12-11T02:48:51.546Z,968.82
2017-12-11T02:49:51.478Z,968.83
2017-12-11T02:50:51.489Z,968.94
2017-12-11T02:51:51.503Z,968.87
2017-12-11T02:52:51.514Z,968.95
2017-12-11T02:53:51.531Z,968.94
2017-12-11T02:54:51.547Z,969.00
2017-12-11T02:55:51.557Z,969.04
2017-12-11T02:56:51.569Z,968.97
2017-12-11T02:57:51.580Z,969.02
2017-12-11T02:58:51.591Z,969.03
2017-12-11T02:59:51.604Z,969.03
2017-12-11T03:00:51.622Z,969.13
2017-12-11T03:01:51.631Z,969.15
2017-12-11T03:02:51.645Z,969.16
2017-12-11T03:03:51.656Z,969.25
2017-12-11T03:04:51.670Z,969.30
2017-12-11T03:05:51.689Z,969.27
2017-12-11T03:06:51.694Z,969.37
2017-12-11T03:07:51.707Z,969.30
2017-12-11T03:08:51.718Z,969.41
2017-12-11T03:09:51.735Z,969.50
2017-12-11T03:10:51.746Z,969.66
2017-12-11T03:11:51.761Z,969.79
2017-12-11T03:12:51.773Z,969.85
2017-12-11T03:13:51.782Z,969.92
2017-12-11T03:14:51.852Z,969.95
2017-12-11T03:15:51.810Z,969.99
2017-12-11T03:16:51.824Z,970.03
2017-12-11T03:17:51.838Z,970.00
2017-12-11T03:18:51.850Z,970.08
2017-12-11T03:19:51.861Z,970.16
2017-12-11T03:20:51.938Z,970.26
2017-12-11T03:21:51.887Z,970.33
2017-12-11T03:22:51.901Z,970.30
2017-12-11T03:23:51.912Z,970.37
2017-12-11T03:24:51.927Z,970.41
2017-12-11T03:25:51.943Z,970.43
2017-12-11T03:26:51.951Z,970.45
2017-12-11T03:27:51.962Z,970.49
2017-12-11T03:28:51.974Z,970.58
2017-12-11T03:29:51.991Z,970.50
2017-12-11T03:30:52.012Z,970.57
2017-12-11T03:31:52.029Z,970.53
2017-12-11T03:32:52.026Z,970.61
2017-12-11T03:33:52.042Z,970.53
2017-12-11T03:34:52.052Z,970.53
2017-12-11T03:35:52.066Z,970.61
2017-12-11T03:36:52.076Z,970.63
2017-12-11T03:37:52.091Z,970.67
2017-12-11T03:38:52.103Z,970.68
2017-12-11T03:39:52.115Z,970.76
2017-12-11T03:40:52.136Z,970.76
2017-12-11T03:41:52.140Z,970.76
2017-12-11T03:42:52.154Z,970.76
2017-12-11T03:43:52.163Z,970.83
2017-12-11T03:44:52.176Z,970.74
2017-12-11T03:45:52.191Z,970.71
2017-12-11T03:46:52.204Z,970.71
2017-12-11T03:47:52.217Z,970.79
2017-12-11T03:48:52.230Z,970.73
2017-12-11T03:49:52.243Z,970.80
2017-12-11T03:50:52.257Z,970.84
2017-12-11T03:51:52.272Z,970.82
2017-12-11T03:52:52.279Z,970.85
2017-12-11T03:53:52.293Z,970.95
2017-12-11T03:54:52.308Z,970.96
2017-12-11T03:55:52.317Z,970.99
2017-12-11T03:56:52.330Z,971.02
2017-12-11T03:57:52.341Z,971.04
2017-12-11T03:58:52.355Z,971.15
2017-12-11T03:59:52.367Z,971.18
2017-12-11T04:00:52.379Z,971.19
2017-12-11T04:01:52.395Z,971.29
2017-12-11T04:02:52.405Z,971.24
2017-12-11T04:03:52.418Z,971.29
2017-12-11T04:04:52.430Z,971.31
2017-12-11T04:05:52.444Z,971.34
2017-12-11T04:06:52.458Z,971.35
2017-12-11T04:07:52.468Z,971.37
2017-12-11T04:08:52.483Z,971.33
2017-12-11T04:09:52.495Z,971.32
2017-12-11T04:10:52.508Z,971.32
2017-12-11T04:11:52.518Z,971.35
2017-12-11T04:12:52.530Z,971.23
2017-12-11T04:13:52.546Z,971.22
2017-12-11T04:14:52.556Z,971.26
2017-12-11T04:15:52.573Z,971.25
2017-12-11T04:16:52.583Z,971.23
2017-12-11T04:17:52.599Z,971.20
2017-12-11T04:18:52.609Z,971.17
2017-12-11T04:19:52.621Z,971.16
2017-12-11T04:20:52.633Z,971.13
2017-12-11T04:21:52.647Z,971.10
2017-12-11T04:22:52.665Z,971.04
2017-12-11T04:23:52.673Z,971.02
2017-12-11T04:24:52.681Z,971.01
2017-12-11T04:25:52.704Z,971.04
2017-12-11T04:26:52.709Z,971.05
2017-12-11T04:27:52.724Z,971.09
2017-12-11T04:28:52.740Z,971.14
2017-12-11T04:29:52.746Z,971.15
2017-12-11T04:30:52.764Z,971.14
2017-12-11T04:31:52.773Z,971.15
2017-12-11T04:32:52.786Z,971.10
2017-12-11T04:33:52.799Z,971.14
2017-12-11T04:34:52.812Z,971.12
2017-12-11T04:35:52.824Z,971.16
2017-12-11T04:36:52.836Z,971.15
2017-12-11T04:37:52.848Z,971.13
2017-12-11T04:38:52.864Z,971.10
2017-12-11T04:39:52.875Z,971.08
2017-12-11T04:40:52.888Z,971.09
2017-12-11T04:41:52.901Z,971.12
2017-12-11T04:42:52.912Z,971.13
2017-12-11T04:43:52.923Z,971.10
2017-12-11T04:44:52.939Z,971.06
2017-12-11T04:45:52.954Z,971.05
2017-12-11T04:46:52.966Z,970.97
2017-12-11T04:47:52.980Z,970.96
2017-12-11T04:48:52.991Z,970.95
2017-12-11T04:49:53.003Z,970.88
2017-12-11T04:50:53.017Z,970.83
2017-12-11T04:51:53.028Z,970.82
2017-12-11T04:52:53.043Z,970.78
2017-12-11T04:53:53.070Z,970.76
2017-12-11T04:54:53.065Z,970.72
2017-12-11T04:55:53.080Z,970.74
2017-12-11T04:56:53.095Z,970.74
2017-12-11T04:57:53.106Z,970.71
2017-12-11T04:58:53.119Z,970.65
2017-12-11T04:59:53.139Z,970.65
2017-12-11T05:00:53.143Z,970.61
2017-12-11T05:01:53.161Z,970.59
2017-12-11T05:02:53.172Z,970.61
2017-12-11T05:03:53.186Z,970.62
2017-12-11T05:04:53.199Z,970.62
2017-12-11T05:05:53.211Z,970.60
2017-12-11T05:06:53.232Z,970.65
2017-12-11T05:07:53.240Z,970.69
2017-12-11T05:08:53.248Z,970.75
2017-12-11T05:09:53.262Z,970.82
2017-12-11T05:10:53.276Z,970.85
2017-12-11T05:11:53.294Z,970.88
2017-12-11T05:12:53.299Z,970.97
2017-12-11T05:13:53.312Z,971.01
2017-12-11T05:14:53.329Z,971.02
2017-12-11T05:15:53.399Z,971.06
2017-12-11T05:16:53.352Z,971.09
2017-12-11T05:17:53.366Z,971.14
2017-12-11T05:18:53.379Z,971.19
2017-12-11T05:19:53.390Z,971.24
2017-12-11T05:20:53.404Z,971.27
2017-12-11T05:21:53.419Z,971.27
2017-12-11T05:22:53.431Z,971.32
2017-12-11T05:23:53.440Z,971.30
2017-12-11T05:24:53.454Z,971.28
2017-12-11T05:25:53.469Z,971.30
2017-12-11T05:26:53.483Z,971.26
2017-12-11T05:27:53.493Z,971.27
2017-12-11T05:28:53.513Z,971.22
2017-12-11T05:29:53.521Z,971.18
2017-12-11T05:30:53.533Z,971.18
2017-12-11T05:31:53.548Z,971.17
2017-12-11T05:32:53.559Z,971.23
2017-12-11T05:33:53.588Z,971.28
2017-12-11T05:34:53.589Z,971.32
2017-12-11T05:35:53.600Z,971.37
2017-12-11T05:36:53.613Z,971.41
2017-12-11T05:37:53.627Z,971.43
2017-12-11T05:38:53.640Z,971.48
2017-12-11T05:39:53.657Z,971.50
2017-12-11T05:40:53.666Z,971.50
2017-12-11T05:41:53.680Z,971.46
2017-12-11T05:42:53.691Z,971.51
2017-12-11T05:43:53.706Z,971.46
2017-12-11T05:44:53.718Z,971.43
2017-12-11T05:45:53.731Z,971.42
2017-12-11T05:46:53.751Z,971.37
2017-12-11T05:47:53.758Z,971.33
2017-12-11T05:48:53.777Z,971.35
2017-12-11T05:49:53.783Z,971.27
2017-12-11T05:50:53.797Z,971.21
2017-12-11T05:51:53.810Z,971.19
2017-12-11T05:52:53.823Z,971.13
2017-12-11T05:53:53.836Z,971.14
2017-12-11T05:54:53.851Z,971.10
2017-12-11T05:55:53.863Z,971.11
2017-12-11T05:56:53.874Z,971.13
2017-12-11T05:57:53.888Z,971.15
2017-12-11T05:58:53.902Z,971.14
2017-12-11T05:59:53.915Z,971.20
2017-12-11T06:00:53.928Z,971.17
2017-12-11T06:01:53.943Z,971.20
2017-12-11T06:02:53.961Z,971.28
2017-12-11T06:03:53.970Z,971.28
2017-12-11T06:04:53.983Z,971.31
2017-12-11T06:05:53.994Z,971.28
2017-12-11T06:06:54.011Z,971.30
2017-12-11T06:07:54.022Z,971.30
2017-12-11T06:08:54.036Z,971.31
2017-12-11T06:09:54.048Z,971.31
2017-12-11T06:10:54.061Z,971.32
2017-12-11T06:11:54.076Z,971.33
2017-12-11T06:12:54.086Z,971.30
2017-12-11T06:13:54.108Z,971.32
2017-12-11T06:14:54.113Z,971.32
2017-12-11T06:15:54.131Z,971.29
2017-12-11T06:16:54.141Z,971.26
2017-12-11T06:17:54.154Z,971.27
2017-12-11T06:18:54.168Z,971.28
2017-12-11T06:19:54.181Z,971.29
2017-12-11T06:20:54.193Z,971.26
2017-12-11T06:21:54.208Z,971.26
2017-12-11T06:22:54.221Z,971.27
2017-12-11T06:23:54.233Z,971.27
2017-12-11T06:24:54.245Z,971.26
2017-12-11T06:25:54.262Z,971.28
2017-12-11T06:26:54.279Z,971.23
2017-12-11T06:27:54.286Z,971.17
2017-12-11T06:28:54.302Z,971.10
2017-12-11T06:29:54.320Z,971.09
2017-12-11T06:30:54.326Z,971.01
2017-12-11T06:31:54.339Z,970.96
2017-12-11T06:32:54.353Z,970.89
2017-12-11T06:33:54.377Z,970.78
2017-12-11T06:34:54.380Z,970.80
2017-12-11T06:35:54.392Z,970.85
2017-12-11T06:36:54.408Z,970.88
2017-12-11T06:37:54.439Z,970.89
2017-12-11T06:38:54.435Z,970.89
2017-12-11T06:39:54.447Z,970.89
2017-12-11T06:40:54.460Z,970.82
2017-12-11T06:41:54.470Z,970.84
2017-12-11T06:42:54.485Z,970.81
2017-12-11T06:43:54.499Z,970.81
2017-12-11T06:44:54.513Z,970.76
2017-12-11T06:45:54.527Z,970.79
2017-12-11T06:46:54.538Z,970.74
2017-12-11T06:47:54.550Z,970.68
2017-12-11T06:48:54.564Z,970.67
2017-12-11T06:49:54.576Z,970.67
2017-12-11T06:50:54.591Z,970.65
2017-12-11T06:51:54.605Z,970.67
2017-12-11T06:52:54.615Z,970.67
2017-12-11T06:53:54.633Z,970.68
2017-12-11T06:54:54.645Z,970.71
2017-12-11T06:55:54.657Z,970.72
2017-12-11T06:56:54.670Z,970.69
2017-12-11T06:57:54.682Z,970.62
2017-12-11T06:58:54.713Z,970.54
2017-12-11T06:59:54.707Z,970.55
2017-12-11T07:00:54.721Z,970.49
2017-12-11T07:01:54.736Z,970.52
2017-12-11T07:02:54.754Z,970.66
2017-12-11T07:03:54.759Z,970.76
2017-12-11T07:04:54.773Z,970.84
2017-12-11T07:05:54.798Z,970.88
2017-12-11T07:06:54.802Z,970.87
2017-12-11T07:07:54.812Z,970.85
2017-12-11T07:08:54.829Z,970.87
2017-12-11T07:09:54.842Z,970.89
2017-12-11T07:10:54.852Z,970.86
2017-12-11T07:11:54.867Z,970.84
2017-12-11T07:12:54.879Z,970.84
2017-12-11T07:13:54.897Z,970.88
2017-12-11T07:14:54.907Z,970.86
2017-12-11T07:15:54.917Z,970.94
2017-12-11T07:16:54.933Z,970.93
2017-12-11T07:17:54.947Z,971.00
2017-12-11T07:18:54.961Z,971.02
2017-12-11T07:19:54.971Z,971.05
2017-12-11T07:20:54.988Z,971.10
2017-12-11T07:21:55.002Z,971.08
2017-12-11T07:22:55.014Z,971.06
2017-12-11T07:23:55.031Z,971.06
2017-12-11T07:24:55.046Z,971.06
2017-12-11T07:25:55.052Z,971.06
2017-12-11T07:26:55.071Z,971.09
2017-12-11T07:27:55.077Z,971.06
2017-12-11T07:28:55.098Z,971.05
2017-12-11T07:29:55.106Z,971.06
2017-12-11T07:30:55.121Z,971.11
2017-12-11T07:31:55.133Z,971.09
2017-12-11T07:32:55.146Z,971.10
2017-12-11T07:33:55.163Z,971.06
2017-12-11T07:34:55.173Z,971.10
2017-12-11T07:35:55.189Z,971.12
2017-12-11T07:36:55.199Z,971.12
2017-12-11T07:37:55.208Z,971.14
2017-12-11T07:38:55.223Z,971.21
2017-12-11T07:39:55.237Z,971.21
2017-12-11T07:40:55.248Z,971.21
2017-12-11T07:41:55.263Z,971.26
2017-12-11T07:42:55.276Z,971.21
2017-12-11T07:43:55.298Z,971.20
2017-12-11T07:44:55.305Z,971.18
2017-12-11T07:45:55.326Z,971.22
2017-12-11T07:46:55.340Z,971.21
2017-12-11T07:47:55.344Z,971.23
2017-12-11T07:48:55.356Z,971.23
2017-12-11T07:49:55.368Z,971.21
2017-12-11T07:50:55.383Z,971.11
2017-12-11T07:51:55.415Z,971.12
2017-12-11T07:52:55.411Z,971.09
2017-12-11T07:53:55.421Z,971.10
2017-12-11T07:54:55.442Z,971.08
2017-12-11T07:55:55.448Z,971.11
2017-12-11T07:56:55.461Z,971.13
2017-12-11T07:57:55.475Z,971.15
2017-12-11T07:58:55.486Z,971.14
2017-12-11T07:59:55.500Z,971.16
2017-12-11T08:00:55.516Z,971.13
2017-12-11T08:01:55.534Z,971.15
2017-12-11T08:02:55.554Z,971.16
2017-12-11T08:03:55.559Z,971.19
2017-12-11T08:04:55.566Z,971.21
2017-12-11T08:05:55.581Z,971.25
2017-12-11T08:06:55.591Z,971.30
2017-12-11T08:07:55.600Z,971.32
2017-12-11T08:08:55.619Z,971.39
2017-12-11T08:09:55.638Z,971.49
2017-12-11T08:10:55.640Z,971.49
2017-12-11T08:11:55.663Z,971.51
2017-12-11T08:12:55.682Z,971.53
2017-12-11T08:13:55.681Z,971.58
2017-12-11T08:14:55.693Z,971.52
2017-12-11T08:15:55.795Z,971.48
2017-12-11T08:16:55.718Z,971.43
2017-12-11T08:17:55.730Z,971.37
2017-12-11T08:18:55.746Z,971.36
2017-12-11T08:19:55.754Z,971.34
2017-12-11T08:20:55.767Z,971.32
2017-12-11T08:21:55.783Z,971.33
2017-12-11T08:22:55.873Z,971.32
2017-12-11T08:23:55.807Z,971.35
2017-12-11T08:24:55.819Z,971.39
2017-12-11T08:25:55.833Z,971.40
2017-12-11T08:26:55.849Z,971.42
2017-12-11T08:27:55.858Z,971.26
2017-12-11T08:28:55.870Z,971.23
2017-12-11T08:29:55.886Z,971.21
2017-12-11T08:30:55.899Z,971.24
2017-12-11T08:31:55.911Z,971.25
2017-12-11T08:32:55.926Z,971.29
2017-12-11T08:33:55.935Z,971.31
2017-12-11T08:34:55.948Z,971.39
2017-12-11T08:35:55.960Z,971.34
2017-12-11T08:36:55.972Z,971.35
2017-12-11T08:37:55.983Z,971.35
2017-12-11T08:38:55.999Z,971.38
2017-12-11T08:39:56.013Z,971.35
2017-12-11T08:40:56.099Z,971.43
2017-12-11T08:41:56.033Z,971.40
2017-12-11T08:42:56.047Z,971.39
2017-12-11T08:43:56.063Z,971.35
2017-12-11T08:44:56.071Z,971.24
2017-12-11T08:45:56.087Z,971.21
2017-12-11T08:46:56.098Z,971.23
2017-12-11T08:47:56.110Z,971.22
2017-12-11T08:48:56.124Z,971.25
2017-12-11T08:49:56.137Z,971.20
2017-12-11T08:50:56.148Z,971.16
2017-12-11T08:51:56.161Z,971.22
2017-12-11T08:52:56.171Z,971.21
2017-12-11T08:53:56.190Z,971.25
2017-12-11T08:54:56.200Z,971.24
2017-12-11T08:55:56.265Z,971.28
2017-12-11T08:56:56.225Z,971.31
2017-12-11T08:57:56.238Z,971.34
2017-12-11T08:58:56.252Z,971.34
2017-12-11T08:59:56.267Z,971.26
2017-12-11T09:00:56.277Z,971.18
2017-12-11T09:01:56.290Z,971.15
2017-12-11T09:02:56.304Z,971.10
2017-12-11T09:03:56.327Z,971.11
2017-12-11T09:04:56.331Z,971.06
2017-12-11T09:05:56.339Z,971.10
2017-12-11T09:06:56.357Z,971.09
2017-12-11T09:07:56.366Z,971.11
2017-12-11T09:08:56.383Z,971.18
2017-12-11T09:09:56.394Z,971.28
2017-12-11T09:10:56.404Z,971.29
2017-12-11T09:11:56.417Z,971.26
2017-12-11T09:12:56.429Z,971.23
2017-12-11T09:13:56.442Z,971.23
2017-12-11T09:14:56.456Z,971.19
2017-12-11T09:15:56.467Z,971.11
2017-12-11T09:16:56.483Z,971.10
2017-12-11T09:17:56.511Z,971.10
2017-12-11T09:18:56.509Z,971.10
2017-12-11T09:19:56.518Z,971.13
2017-12-11T09:20:56.532Z,971.19
2017-12-11T09:21:56.546Z,971.25
2017-12-11T09:22:56.558Z,971.28
2017-12-11T09:23:56.564Z,971.24
2017-12-11T09:24:56.580Z,971.19
2017-12-11T09:25:56.596Z,971.16
2017-12-11T09:26:56.604Z,971.12
2017-12-11T09:27:56.617Z,971.00
2017-12-11T09:28:56.635Z,970.95
2017-12-11T09:29:56.641Z,970.95
2017-12-11T09:30:56.653Z,970.93
2017-12-11T09:31:56.665Z,970.91
2017-12-11T09:32:56.679Z,971.01
2017-12-11T09:33:56.692Z,971.01
2017-12-11T09:34:56.706Z,971.06
2017-12-11T09:35:56.712Z,971.09
2017-12-11T09:36:56.731Z,971.08
2017-12-11T09:37:56.738Z,971.05
2017-12-11T09:38:56.754Z,971.07
2017-12-11T09:39:56.763Z,971.13
2017-12-11T09:40:56.781Z,971.17
2017-12-11T09:41:56.804Z,971.14
2017-12-11T09:42:56.798Z,971.11
2017-12-11T09:43:56.810Z,971.06
2017-12-11T09:44:56.824Z,971.02
2017-12-11T09:45:56.840Z,970.97
2017-12-11T09:46:56.847Z,970.98
2017-12-11T09:47:56.859Z,970.98
2017-12-11T09:48:56.879Z,971.01
2017-12-11T09:49:56.891Z,971.04
2017-12-11T09:50:56.895Z,971.03
2017-12-11T09:51:56.908Z,971.10
2017-12-11T09:52:56.919Z,971.18
2017-12-11T09:53:56.931Z,971.21
2017-12-11T09:54:56.949Z,971.24
2017-12-11T09:55:56.970Z,971.21
2017-12-11T09:56:56.969Z,971.19
2017-12-11T09:57:56.984Z,971.11
2017-12-11T09:58:56.997Z,971.13
2017-12-11T09:59:57.006Z,971.12
2017-12-11T10:00:57.022Z,971.16
2017-12-11T10:01:57.037Z,971.07
2017-12-11T10:02:57.042Z,970.99
2017-12-11T10:03:57.063Z,970.91
2017-12-11T10:04:57.067Z,970.90
2017-12-11T10:05:57.082Z,970.94
2017-12-11T10:06:57.112Z,970.98
2017-12-11T10:07:57.107Z,970.92
2017-12-11T10:08:57.119Z,970.85
2017-12-11T10:09:57.131Z,970.81
2017-12-11T10:10:57.144Z,970.74
2017-12-11T10:11:57.151Z,970.74
2017-12-11T10:12:57.166Z,970.77
2017-12-11T10:13:57.178Z,970.77
2017-12-11T10:14:57.195Z,970.74
2017-12-11T10:15:57.204Z,970.71
2017-12-11T10:16:57.215Z,970.67
2017-12-11T10:17:57.228Z,970.62
2017-12-11T10:18:57.242Z,970.63
2017-12-11T10:19:57.252Z,970.60
2017-12-11T10:20:57.264Z,970.64
2017-12-11T10:21:57.277Z,970.61
2017-12-11T10:22:57.289Z,970.52
2017-12-11T10:23:57.304Z,970.48
2017-12-11T10:24:57.318Z,970.35
2017-12-11T10:25:57.326Z,970.44
2017-12-11T10:26:57.341Z,970.42
2017-12-11T10:27:57.349Z,970.46
2017-12-11T10:28:57.365Z,970.37
2017-12-11T10:29:57.377Z,970.29
2017-12-11T10:30:57.393Z,970.28
2017-12-11T10:31:57.399Z,970.25
2017-12-11T10:32:57.413Z,970.27
2017-12-11T10:33:57.422Z,970.26
2017-12-11T10:34:57.441Z,970.14
2017-12-11T10:35:57.448Z,970.17
2017-12-11T10:36:57.468Z,970.18
2017-12-11T10:37:57.478Z,970.19
2017-12-11T10:38:57.485Z,970.09
2017-12-11T10:39:57.504Z,970.01
2017-12-11T10:40:57.510Z,969.96
2017-12-11T10:41:57.522Z,969.99
2017-12-11T10:42:57.533Z,969.97
2017-12-11T10:43:57.548Z,969.88
2017-12-11T10:44:57.561Z,969.84
2017-12-11T10:45:57.574Z,969.87
2017-12-11T10:46:57.585Z,969.99
2017-12-11T10:47:57.595Z,969.83
2017-12-11T10:48:57.607Z,969.70
2017-12-11T10:49:57.626Z,969.54
2017-12-11T10:50:57.630Z,969.48
2017-12-11T10:51:57.646Z,969.58
2017-12-11T10:52:57.659Z,969.49
2017-12-11T10:53:57.668Z,969.40
2017-12-11T10:54:57.680Z,969.31
2017-12-11T10:55:57.701Z,969.30
2017-12-11T10:56:57.710Z,969.29
2017-12-11T10:57:57.717Z,969.24
2017-12-11T10:58:57.729Z,969.24
2017-12-11T10:59:57.741Z,969.19
2017-12-11T11:00:57.760Z,969.25
2017-12-11T11:01:57.764Z,969.24
2017-12-11T11:02:57.786Z,969.24
2017-12-11T11:03:57.794Z,969.25
2017-12-11T11:04:57.845Z,969.25
2017-12-11T11:05:57.814Z,969.18
2017-12-11T11:06:57.830Z,969.13
2017-12-11T11:07:57.842Z,969.13
2017-12-11T11:08:57.852Z,969.16
2017-12-11T11:09:57.864Z,969.10
2017-12-11T11:10:57.876Z,969.05
2017-12-11T11:11:57.890Z,969.04
2017-12-11T11:12:57.906Z,969.12
2017-12-11T11:13:57.917Z,969.14
2017-12-11T11:14:57.927Z,969.15
2017-12-11T11:15:57.938Z,969.19
2017-12-11T11:16:57.953Z,969.09
2017-12-11T11:17:57.964Z,968.97
2017-12-11T11:18:57.978Z,968.88
2017-12-11T11:19:57.987Z,968.89
2017-12-11T11:20:58.003Z,968.79
2017-12-11T11:21:58.015Z,968.79
2017-12-11T11:22:58.028Z,968.77
2017-12-11T11:23:58.041Z,968.74
2017-12-11T11:24:58.052Z,968.67
2017-12-11T11:25:58.063Z,968.79
2017-12-11T11:26:58.075Z,968.74
2017-12-11T11:27:58.097Z,968.68
2017-12-11T11:28:58.100Z,968.67
2017-12-11T11:29:58.115Z,968.65
2017-12-11T11:30:58.129Z,968.62
2017-12-11T11:31:58.142Z,968.61
2017-12-11T11:32:58.154Z,968.62
2017-12-11T11:33:58.166Z,968.57
2017-12-11T11:34:58.178Z,968.52
2017-12-11T11:35:58.189Z,968.48
2017-12-11T11:36:58.202Z,968.42
2017-12-11T11:37:58.218Z,968.34
2017-12-11T11:38:58.236Z,968.34
2017-12-11T11:39:58.242Z,968.37
2017-12-11T11:40:58.259Z,968.31
2017-12-11T11:41:58.271Z,968.33
2017-12-11T11:42:58.281Z,968.28
2017-12-11T11:43:58.292Z,968.21
2017-12-11T11:44:58.305Z,968.19
2017-12-11T11:45:58.318Z,968.14
2017-12-11T11:46:58.331Z,968.11
2017-12-11T11:47:58.357Z,967.99
2017-12-11T11:48:58.366Z,968.02
2017-12-11T11:49:58.372Z,967.98
2017-12-11T11:50:58.382Z,968.08
2017-12-11T11:51:58.396Z,967.93
2017-12-11T11:52:58.413Z,967.79
2017-12-11T11:53:58.421Z,967.74
2017-12-11T11:54:58.434Z,967.70
2017-12-11T11:55:58.447Z,967.60
2017-12-11T11:56:58.456Z,967.51
2017-12-11T11:57:58.473Z,967.50
2017-12-11T11:58:58.486Z,967.47
2017-12-11T11:59:58.495Z,967.47
2017-12-11T12:00:58.515Z,967.46
2017-12-11T12:01:58.521Z,967.48
2017-12-11T12:02:58.538Z,967.47
2017-12-11T12:03:58.549Z,967.40
2017-12-11T12:04:58.559Z,967.36
2017-12-11T12:05:58.570Z,967.35
2017-12-11T12:06:58.584Z,967.28
2017-12-11T12:07:58.595Z,967.30
2017-12-11T12:08:58.609Z,967.15
2017-12-11T12:09:58.621Z,967.08
2017-12-11T12:10:58.639Z,966.98
2017-12-11T12:11:58.646Z,966.87
2017-12-11T12:12:58.656Z,966.79
2017-12-11T12:13:58.673Z,966.78
2017-12-11T12:14:58.684Z,966.74
2017-12-11T12:15:58.695Z,966.69
2017-12-11T12:16:58.707Z,966.76
2017-12-11T12:17:58.727Z,966.85
2017-12-11T12:18:58.729Z,966.75
2017-12-11T12:19:58.740Z,966.72
2017-12-11T12:20:58.757Z,966.78
2017-12-11T12:21:58.764Z,966.74
2017-12-11T12:22:58.779Z,966.68
2017-12-11T12:23:58.788Z,966.65
2017-12-11T12:24:58.801Z,966.63
2017-12-11T12:25:58.818Z,966.82
2017-12-11T12:26:58.824Z,966.74
2017-12-11T12:27:58.834Z,966.72
2017-12-11T12:28:58.846Z,966.78